sensor_id;sensor_type;location;lat;lon;timestamp;pressure;altitude;pressure_sealevel;temperature;humidity
61573;BME280;47465;43.094;12.434;2023-03-21T02:38:45;98770.81;;;9.17;100.00
61573;BME280;47465;43.094;12.434;2023-03-21T04:41:47;98736.72;;;8.03;100.00
61573;BME280;47465;43.094;12.434;2023-03-21T04:44:18;98708.16;;;8.21;100.00
61573;BME280;47465;43.094;12.434;2023-03-21T04:46:51;98708.00;;;8.30;100.00
61573;BME280;47465;43.094;12.434;2023-03-21T04:49:25;98712.28;;;8.37;100.00
61573;BME280;47465;43.094;12.434;2023-03-21T04:55:20;98717.06;;;8.17;100.00
61573;BME280;47465;43.094;12.434;2023-03-21T06:41:50;98761.47;;;10.48;100.00
61573;BME280;47465;43.094;12.434;2023-03-21T06:44:17;98751.56;;;10.55;100.00
61573;BME280;47465;43.094;12.434;2023-03-21T06:46:43;98754.47;;;10.77;100.00
61573;BME280;47465;43.094;12.434;2023-03-21T06:49:10;98755.25;;;10.82;100.00
61573;BME280;47465;43.094;12.434;2023-03-21T06:51:36;98771.94;;;10.87;100.00
61573;BME280;47465;43.094;12.434;2023-03-21T06:54:06;98754.25;;;10.86;100.00
61573;BME280;47465;43.094;12.434;2023-03-21T06:56:35;98757.53;;;10.95;100.00
61573;BME280;47465;43.094;12.434;2023-03-21T06:59:03;98792.97;;;11.28;100.00
61573;BME280;47465;43.094;12.434;2023-03-21T07:01:30;98758.72;;;11.16;100.00
61573;BME280;47465;43.094;12.434;2023-03-21T07:04:00;98800.88;;;11.29;100.00
61573;BME280;47465;43.094;12.434;2023-03-21T07:06:27;98770.22;;;11.16;99.57
61573;BME280;47465;43.094;12.434;2023-03-21T07:08:56;98763.53;;;11.01;98.66
61573;BME280;47465;43.094;12.434;2023-03-21T07:11:25;98770.50;;;11.07;100.00
61573;BME280;47465;43.094;12.434;2023-03-21T07:13:51;98769.31;;;11.17;100.00
61573;BME280;47465;43.094;12.434;2023-03-21T07:16:22;98756.88;;;11.18;98.42
61573;BME280;47465;43.094;12.434;2023-03-21T07:18:49;98760.03;;;11.30;97.77
61573;BME280;47465;43.094;12.434;2023-03-21T07:21:17;98774.63;;;11.47;98.02
61573;BME280;47465;43.094;12.434;2023-03-21T07:23:45;98768.53;;;11.14;99.25
61573;BME280;47465;43.094;12.434;2023-03-21T07:26:12;98753.28;;;11.19;99.87
61573;BME280;47465;43.094;12.434;2023-03-21T07:28:42;98758.34;;;11.28;99.62
61573;BME280;47465;43.094;12.434;2023-03-21T07:31:14;98757.34;;;11.32;100.00
61573;BME280;47465;43.094;12.434;2023-03-21T07:33:51;98790.97;;;11.35;100.00
61573;BME280;47465;43.094;12.434;2023-03-21T07:36:36;98777.88;;;11.27;100.00
61573;BME280;47465;43.094;12.434;2023-03-21T07:39:05;98808.50;;;11.71;100.00
61573;BME280;47465;43.094;12.434;2023-03-21T07:41:48;98766.22;;;11.61;98.39
61573;BME280;47465;43.094;12.434;2023-03-21T07:50:49;98759.22;;;11.85;96.49
61573;BME280;47465;43.094;12.434;2023-03-21T07:53:18;98760.25;;;12.09;94.34
61573;BME280;47465;43.094;12.434;2023-03-21T07:55:48;98805.00;;;12.26;94.66
61573;BME280;47465;43.094;12.434;2023-03-21T07:58:14;98765.63;;;12.07;92.04
61573;BME280;47465;43.094;12.434;2023-03-21T08:00:40;98791.31;;;12.37;91.83
61573;BME280;47465;43.094;12.434;2023-03-21T08:03:07;98779.50;;;12.44;90.90
61573;BME280;47465;43.094;12.434;2023-03-21T08:05:35;98778.06;;;12.33;89.74
61573;BME280;47465;43.094;12.434;2023-03-21T08:08:03;98812.22;;;12.76;89.83
61573;BME280;47465;43.094;12.434;2023-03-21T08:10:34;98776.13;;;12.64;89.85
61573;BME280;47465;43.094;12.434;2023-03-21T08:13:00;98793.38;;;12.80;90.78
61573;BME280;47465;43.094;12.434;2023-03-21T08:15:28;98786.13;;;12.84;88.14
61573;BME280;47465;43.094;12.434;2023-03-21T08:17:54;98817.75;;;12.94;85.79
61573;BME280;47465;43.094;12.434;2023-03-21T08:20:21;98800.13;;;12.90;86.69
61573;BME280;47465;43.094;12.434;2023-03-21T08:22:51;98775.66;;;12.78;87.92
61573;BME280;47465;43.094;12.434;2023-03-21T08:25:21;98781.19;;;12.73;86.97
61573;BME280;47465;43.094;12.434;2023-03-21T08:27:52;98794.22;;;12.81;85.51
61573;BME280;47465;43.094;12.434;2023-03-21T08:30:20;98813.88;;;13.03;85.69
61573;BME280;47465;43.094;12.434;2023-03-21T09:22:21;98767.09;;;13.64;76.27
61573;BME280;47465;43.094;12.434;2023-03-21T10:32:20;98785.84;;;16.43;61.67
61573;BME280;47465;43.094;12.434;2023-03-21T10:35:15;98779.13;;;16.17;64.22
61573;BME280;47465;43.094;12.434;2023-03-21T10:38:01;98785.72;;;15.73;64.57
61573;BME280;47465;43.094;12.434;2023-03-21T11:16:05;98765.75;;;15.41;63.28
61573;BME280;47465;43.094;12.434;2023-03-21T11:18:40;98759.09;;;15.50;64.13
61573;BME280;47465;43.094;12.434;2023-03-21T11:21:08;98759.53;;;15.40;62.49
61573;BME280;47465;43.094;12.434;2023-03-21T11:23:40;98740.41;;;15.29;63.12
61573;BME280;47465;43.094;12.434;2023-03-21T11:26:16;98729.25;;;15.38;63.32
61573;BME280;47465;43.094;12.434;2023-03-21T11:28:46;98770.25;;;15.59;64.68
61573;BME280;47465;43.094;12.434;2023-03-21T11:31:14;98770.84;;;15.66;63.65
61573;BME280;47465;43.094;12.434;2023-03-21T11:33:50;98741.06;;;15.34;62.21
61573;BME280;47465;43.094;12.434;2023-03-21T11:36:26;98745.47;;;15.54;63.44
61573;BME280;47465;43.094;12.434;2023-03-21T11:39:12;98753.94;;;15.45;64.14
61573;BME280;47465;43.094;12.434;2023-03-21T11:41:40;98743.97;;;15.49;64.50
61573;BME280;47465;43.094;12.434;2023-03-21T11:44:25;98722.00;;;15.40;63.21
61573;BME280;47465;43.094;12.434;2023-03-21T11:46:53;98731.13;;;15.55;63.20
61573;BME280;47465;43.094;12.434;2023-03-21T11:49:22;98721.94;;;15.23;65.78
61573;BME280;47465;43.094;12.434;2023-03-21T11:52:02;98721.84;;;15.44;65.79
61573;BME280;47465;43.094;12.434;2023-03-21T11:54:37;98704.13;;;15.79;64.21
61573;BME280;47465;43.094;12.434;2023-03-21T11:57:18;98702.28;;;15.79;64.41
61573;BME280;47465;43.094;12.434;2023-03-21T11:59:55;98706.63;;;15.82;65.07
61573;BME280;47465;43.094;12.434;2023-03-21T12:02:55;98700.03;;;16.07;62.11
61573;BME280;47465;43.094;12.434;2023-03-21T12:05:39;98723.19;;;16.61;62.34
61573;BME280;47465;43.094;12.434;2023-03-21T12:08:22;98714.34;;;16.59;62.32
61573;BME280;47465;43.094;12.434;2023-03-21T12:11:14;98678.69;;;16.22;61.29
61573;BME280;47465;43.094;12.434;2023-03-21T12:13:56;98710.47;;;16.48;61.97
61573;BME280;47465;43.094;12.434;2023-03-21T12:16:43;98668.75;;;16.07;61.20
61573;BME280;47465;43.094;12.434;2023-03-21T12:19:51;98671.47;;;15.69;63.52
61573;BME280;47465;43.094;12.434;2023-03-21T12:22:46;98666.25;;;15.49;62.11
61573;BME280;47465;43.094;12.434;2023-03-21T12:25:21;98658.00;;;15.71;62.01
61573;BME280;47465;43.094;12.434;2023-03-21T12:28:00;98657.88;;;15.74;62.47
61573;BME280;47465;43.094;12.434;2023-03-21T12:30:44;98660.75;;;15.88;62.55
61573;BME280;47465;43.094;12.434;2023-03-21T12:33:32;98656.31;;;16.05;63.38
61573;BME280;47465;43.094;12.434;2023-03-21T12:39:10;98678.44;;;16.10;60.78
61573;BME280;47465;43.094;12.434;2023-03-21T12:41:44;98662.56;;;15.88;61.53
61573;BME280;47465;43.094;12.434;2023-03-21T12:44:18;98652.16;;;15.81;61.42
61573;BME280;47465;43.094;12.434;2023-03-21T12:46:49;98657.22;;;16.05;61.84
61573;BME280;47465;43.094;12.434;2023-03-21T12:49:33;98653.81;;;16.19;61.68
61573;BME280;47465;43.094;12.434;2023-03-21T12:52:05;98633.50;;;16.31;60.01
61573;BME280;47465;43.094;12.434;2023-03-21T12:54:39;98641.09;;;16.40;60.92
61573;BME280;47465;43.094;12.434;2023-03-21T12:57:47;98626.91;;;16.20;61.50
61573;BME280;47465;43.094;12.434;2023-03-21T13:03:18;98630.50;;;16.37;63.99
61573;BME280;47465;43.094;12.434;2023-03-21T13:05:50;98673.09;;;16.60;60.63
61573;BME280;47465;43.094;12.434;2023-03-21T13:08:22;98628.00;;;16.16;62.25
61573;BME280;47465;43.094;12.434;2023-03-21T13:10:51;98628.00;;;16.34;60.99
61573;BME280;47465;43.094;12.434;2023-03-21T13:13:24;98629.66;;;16.36;60.36
61573;BME280;47465;43.094;12.434;2023-03-21T13:16:03;98623.81;;;16.28;59.33
61573;BME280;47465;43.094;12.434;2023-03-21T13:18:47;98619.91;;;16.00;61.45
61573;BME280;47465;43.094;12.434;2023-03-21T13:21:33;98613.19;;;16.09;61.82
61573;BME280;47465;43.094;12.434;2023-03-21T13:24:18;98609.59;;;16.26;62.22
61573;BME280;47465;43.094;12.434;2023-03-21T13:26:47;98618.50;;;16.44;60.24
61573;BME280;47465;43.094;12.434;2023-03-21T13:29:25;98591.34;;;16.33;60.74
61573;BME280;47465;43.094;12.434;2023-03-21T13:32:05;98594.03;;;16.33;60.38
61573;BME280;47465;43.094;12.434;2023-03-21T13:34:40;98583.09;;;16.37;59.88
61573;BME280;47465;43.094;12.434;2023-03-21T13:37:14;98577.75;;;16.20;61.24
61573;BME280;47465;43.094;12.434;2023-03-21T13:39:47;98596.88;;;16.47;62.41
61573;BME280;47465;43.094;12.434;2023-03-21T13:42:24;98583.69;;;16.42;62.11
61573;BME280;47465;43.094;12.434;2023-03-21T13:44:58;98582.50;;;16.48;60.63
61573;BME280;47465;43.094;12.434;2023-03-21T13:50:28;98576.44;;;16.45;58.90
61573;BME280;47465;43.094;12.434;2023-03-21T13:53:24;98579.66;;;16.51;60.31
61573;BME280;47465;43.094;12.434;2023-03-21T13:56:24;98574.63;;;16.61;59.93
61573;BME280;47465;43.094;12.434;2023-03-21T13:59:01;98576.97;;;16.67;60.06
61573;BME280;47465;43.094;12.434;2023-03-21T14:01:33;98563.31;;;16.72;60.47
61573;BME280;47465;43.094;12.434;2023-03-21T14:04:10;98594.88;;;16.84;58.74
61573;BME280;47465;43.094;12.434;2023-03-21T14:06:45;98555.50;;;16.51;59.25
61573;BME280;47465;43.094;12.434;2023-03-21T14:09:20;98546.59;;;16.67;58.40
61573;BME280;47465;43.094;12.434;2023-03-21T14:11:51;98545.28;;;16.74;58.90
61573;BME280;47465;43.094;12.434;2023-03-21T14:14:20;98551.88;;;16.68;56.91
61573;BME280;47465;43.094;12.434;2023-03-21T14:16:52;98582.06;;;16.40;57.91
61573;BME280;47465;43.094;12.434;2023-03-21T14:19:28;98556.53;;;15.98;57.64
61573;BME280;47465;43.094;12.434;2023-03-21T14:21:57;98563.09;;;15.92;58.82
61573;BME280;47465;43.094;12.434;2023-03-21T14:24:24;98583.50;;;16.12;59.59
61573;BME280;47465;43.094;12.434;2023-03-21T14:26:53;98578.94;;;16.48;58.70
61573;BME280;47465;43.094;12.434;2023-03-21T14:29:21;98581.91;;;16.59;57.79
61573;BME280;47465;43.094;12.434;2023-03-21T14:31:50;98547.50;;;16.50;56.88
61573;BME280;47465;43.094;12.434;2023-03-21T14:34:19;98536.63;;;16.69;56.99
61573;BME280;47465;43.094;12.434;2023-03-21T14:36:47;98564.31;;;16.87;56.99
61573;BME280;47465;43.094;12.434;2023-03-21T14:39:19;98572.63;;;17.14;57.47
61573;BME280;47465;43.094;12.434;2023-03-21T14:41:49;98527.13;;;16.95;57.04
61573;BME280;47465;43.094;12.434;2023-03-21T14:44:31;98525.44;;;16.94;55.60
61573;BME280;47465;43.094;12.434;2023-03-21T14:47:02;98555.81;;;17.10;55.18
61573;BME280;47465;43.094;12.434;2023-03-21T14:49:33;98532.50;;;16.79;56.34
61573;BME280;47465;43.094;12.434;2023-03-21T14:52:02;98549.53;;;16.78;55.73
61573;BME280;47465;43.094;12.434;2023-03-21T14:54:29;98533.31;;;16.48;56.13
61573;BME280;47465;43.094;12.434;2023-03-21T14:56:58;98533.75;;;16.40;56.81
61573;BME280;47465;43.094;12.434;2023-03-21T14:59:35;98569.69;;;16.53;57.08
61573;BME280;47465;43.094;12.434;2023-03-21T15:02:13;98532.63;;;16.44;55.86
61573;BME280;47465;43.094;12.434;2023-03-21T15:04:42;98533.69;;;16.57;55.00
61573;BME280;47465;43.094;12.434;2023-03-21T15:07:27;98533.75;;;16.40;55.16
61573;BME280;47465;43.094;12.434;2023-03-21T15:10:07;98559.69;;;16.73;55.55
61573;BME280;47465;43.094;12.434;2023-03-21T15:12:47;98547.94;;;16.42;55.65
61573;BME280;47465;43.094;12.434;2023-03-21T15:15:30;98554.44;;;16.38;56.10
61573;BME280;47465;43.094;12.434;2023-03-21T15:18:02;98519.91;;;16.14;55.48
61573;BME280;47465;43.094;12.434;2023-03-21T15:20:36;98515.00;;;16.22;56.43
61573;BME280;47465;43.094;12.434;2023-03-21T15:23:07;98552.63;;;16.54;56.60
61573;BME280;47465;43.094;12.434;2023-03-21T15:25:37;98540.56;;;16.46;55.89
61573;BME280;47465;43.094;12.434;2023-03-21T15:28:11;98522.81;;;16.43;55.36
61573;BME280;47465;43.094;12.434;2023-03-21T15:30:47;98534.41;;;16.28;55.64
61573;BME280;47465;43.094;12.434;2023-03-21T15:33:16;98541.94;;;16.37;55.17
61573;BME280;47465;43.094;12.434;2023-03-21T15:35:44;98545.75;;;16.33;55.11
61573;BME280;47465;43.094;12.434;2023-03-21T15:38:27;98546.97;;;16.27;54.81
61573;BME280;47465;43.094;12.434;2023-03-21T15:41:15;98546.50;;;16.19;54.48
61573;BME280;47465;43.094;12.434;2023-03-21T15:43:43;98576.69;;;16.40;54.16
61573;BME280;47465;43.094;12.434;2023-03-21T15:46:16;98551.09;;;16.33;55.59
61573;BME280;47465;43.094;12.434;2023-03-21T15:48:42;98532.69;;;16.27;54.55
61573;BME280;47465;43.094;12.434;2023-03-21T15:51:14;98520.06;;;16.29;55.03
61573;BME280;47465;43.094;12.434;2023-03-21T15:53:46;98548.09;;;16.39;54.78
61573;BME280;47465;43.094;12.434;2023-03-21T15:56:15;98516.13;;;16.18;55.25
61573;BME280;47465;43.094;12.434;2023-03-21T15:58:44;98515.63;;;16.28;54.66
61573;BME280;47465;43.094;12.434;2023-03-21T16:01:11;98546.66;;;16.49;55.07
61573;BME280;47465;43.094;12.434;2023-03-21T16:03:44;98546.63;;;16.33;54.50
61573;BME280;47465;43.094;12.434;2023-03-21T16:06:19;98539.03;;;16.08;55.93
61573;BME280;47465;43.094;12.434;2023-03-21T16:08:48;98516.25;;;15.99;55.65
61573;BME280;47465;43.094;12.434;2023-03-21T16:11:23;98520.88;;;15.96;55.39
61573;BME280;47465;43.094;12.434;2023-03-21T16:13:55;98521.88;;;15.77;56.46
61573;BME280;47465;43.094;12.434;2023-03-21T16:16:25;98520.13;;;15.76;56.32
61573;BME280;47465;43.094;12.434;2023-03-21T16:18:55;98542.84;;;15.87;56.93
61573;BME280;47465;43.094;12.434;2023-03-21T16:21:26;98527.53;;;15.71;56.85
61573;BME280;47465;43.094;12.434;2023-03-21T16:23:53;98538.47;;;15.67;56.57
61573;BME280;47465;43.094;12.434;2023-03-21T16:26:25;98536.28;;;15.57;57.48
61573;BME280;47465;43.094;12.434;2023-03-21T16:28:53;98563.91;;;15.77;57.21
61573;BME280;47465;43.094;12.434;2023-03-21T16:31:20;98529.41;;;15.52;57.10
61573;BME280;47465;43.094;12.434;2023-03-21T16:33:47;98535.56;;;15.54;57.91
61573;BME280;47465;43.094;12.434;2023-03-21T16:36:17;98535.63;;;15.52;57.48
61573;BME280;47465;43.094;12.434;2023-03-21T16:38:44;98531.06;;;15.54;58.03
61573;BME280;47465;43.094;12.434;2023-03-21T16:41:14;98542.31;;;15.61;60.02
61573;BME280;47465;43.094;12.434;2023-03-21T16:43:41;98555.97;;;15.56;60.43
61573;BME280;47465;43.094;12.434;2023-03-21T16:46:11;98527.16;;;15.08;61.45
61573;BME280;47465;43.094;12.434;2023-03-21T16:48:41;98534.97;;;14.93;60.86
61573;BME280;47465;43.094;12.434;2023-03-21T16:51:12;98542.66;;;14.82;61.24
61573;BME280;47465;43.094;12.434;2023-03-21T16:53:47;98547.16;;;14.63;63.44
61573;BME280;47465;43.094;12.434;2023-03-21T16:56:19;98550.66;;;14.44;62.94
61573;BME280;47465;43.094;12.434;2023-03-21T16:58:50;98541.72;;;14.25;63.66
61573;BME280;47465;43.094;12.434;2023-03-21T17:01:20;98556.59;;;14.32;64.44
61573;BME280;47465;43.094;12.434;2023-03-21T17:03:56;98547.50;;;14.15;64.13
61573;BME280;47465;43.094;12.434;2023-03-21T17:06:26;98552.94;;;14.14;63.87
61573;BME280;47465;43.094;12.434;2023-03-21T17:08:58;98543.00;;;13.97;68.35
61573;BME280;47465;43.094;12.434;2023-03-21T17:11:27;98547.06;;;13.65;70.04
61573;BME280;47465;43.094;12.434;2023-03-21T17:14:03;98544.72;;;13.37;71.93
61573;BME280;47465;43.094;12.434;2023-03-21T17:16:29;98587.91;;;13.46;74.14
61573;BME280;47465;43.094;12.434;2023-03-21T17:18:57;98575.19;;;13.09;75.84
61573;BME280;47465;43.094;12.434;2023-03-21T17:21:27;98561.34;;;12.53;80.75
61573;BME280;47465;43.094;12.434;2023-03-21T17:23:59;98555.66;;;12.39;78.72
61573;BME280;47465;43.094;12.434;2023-03-21T17:26:29;98589.22;;;12.68;78.82
61573;BME280;47465;43.094;12.434;2023-03-21T17:28:58;98558.47;;;12.36;81.45
61573;BME280;47465;43.094;12.434;2023-03-21T17:31:26;98580.56;;;12.38;81.84
61573;BME280;47465;43.094;12.434;2023-03-21T17:34:05;98556.44;;;12.43;79.38
61573;BME280;47465;43.094;12.434;2023-03-21T17:36:36;98599.97;;;12.67;81.03
61573;BME280;47465;43.094;12.434;2023-03-21T17:39:07;98566.28;;;12.41;81.43
61573;BME280;47465;43.094;12.434;2023-03-21T17:41:34;98558.28;;;12.41;81.20
61573;BME280;47465;43.094;12.434;2023-03-21T17:44:02;98599.78;;;12.71;80.06
61573;BME280;47465;43.094;12.434;2023-03-21T17:46:33;98558.63;;;12.77;77.47
61573;BME280;47465;43.094;12.434;2023-03-21T17:49:03;98555.25;;;12.95;76.42
61573;BME280;47465;43.094;12.434;2023-03-21T17:51:30;98564.84;;;13.01;76.41
61573;BME280;47465;43.094;12.434;2023-03-21T17:54:01;98576.41;;;13.00;75.85
61573;BME280;47465;43.094;12.434;2023-03-21T17:56:33;98599.41;;;13.04;75.11
61573;BME280;47465;43.094;12.434;2023-03-21T17:59:03;98583.38;;;13.04;74.65
61573;BME280;47465;43.094;12.434;2023-03-21T18:01:30;98556.91;;;12.76;75.14
61573;BME280;47465;43.094;12.434;2023-03-21T18:04:02;98610.78;;;12.86;77.23
61573;BME280;47465;43.094;12.434;2023-03-21T18:06:31;98566.03;;;12.47;77.29
61573;BME280;47465;43.094;12.434;2023-03-21T18:09:02;98573.69;;;12.32;79.71
61573;BME280;47465;43.094;12.434;2023-03-21T18:11:34;98599.38;;;12.59;76.53
61573;BME280;47465;43.094;12.434;2023-03-21T18:14:01;98581.94;;;12.50;76.95
61573;BME280;47465;43.094;12.434;2023-03-21T18:16:30;98566.91;;;12.47;75.25
61573;BME280;47465;43.094;12.434;2023-03-21T18:19:00;98595.50;;;12.67;75.12
61573;BME280;47465;43.094;12.434;2023-03-21T18:21:28;98617.09;;;12.83;73.52
61573;BME280;47465;43.094;12.434;2023-03-21T18:23:56;98600.06;;;12.64;74.44
61573;BME280;47465;43.094;12.434;2023-03-21T18:26:22;98576.88;;;12.66;73.04
61573;BME280;47465;43.094;12.434;2023-03-21T18:29:11;98597.84;;;12.75;73.30
61573;BME280;47465;43.094;12.434;2023-03-21T18:31:39;98573.22;;;12.68;71.87
61573;BME280;47465;43.094;12.434;2023-03-21T18:34:11;98582.50;;;12.82;71.16
61573;BME280;47465;43.094;12.434;2023-03-21T18:36:38;98578.25;;;12.76;71.57
61573;BME280;47465;43.094;12.434;2023-03-21T18:39:10;98587.31;;;12.72;72.14
61573;BME280;47465;43.094;12.434;2023-03-21T18:41:38;98585.81;;;12.65;72.61
61573;BME280;47465;43.094;12.434;2023-03-21T18:44:07;98588.13;;;12.50;73.91
61573;BME280;47465;43.094;12.434;2023-03-21T18:46:39;98625.88;;;12.63;73.95
61573;BME280;47465;43.094;12.434;2023-03-21T18:49:10;98627.38;;;12.70;72.76
61573;BME280;47465;43.094;12.434;2023-03-21T18:51:41;98588.34;;;12.44;73.14
61573;BME280;47465;43.094;12.434;2023-03-21T18:54:16;98589.94;;;12.50;72.85
61573;BME280;47465;43.094;12.434;2023-03-21T18:56:58;98581.13;;;12.48;73.05
61573;BME280;47465;43.094;12.434;2023-03-21T18:59:47;98592.59;;;12.50;73.41
61573;BME280;47465;43.094;12.434;2023-03-21T19:02:31;98606.22;;;12.42;74.50
61573;BME280;47465;43.094;12.434;2023-03-21T19:05:03;98621.22;;;12.21;76.81
61573;BME280;47465;43.094;12.434;2023-03-21T19:07:31;98614.53;;;11.83;79.23
61573;BME280;47465;43.094;12.434;2023-03-21T19:10:17;98654.03;;;11.70;81.39
61573;BME280;47465;43.094;12.434;2023-03-21T19:13:15;98621.47;;;11.07;85.52
61573;BME280;47465;43.094;12.434;2023-03-21T19:15:57;98647.69;;;10.91;88.98
61573;BME280;47465;43.094;12.434;2023-03-21T19:18:38;98664.97;;;10.76;89.73
61573;BME280;47465;43.094;12.434;2023-03-21T19:21:12;98647.19;;;10.47;91.39
61573;BME280;47465;43.094;12.434;2023-03-21T19:23:49;98664.81;;;10.51;92.59
61573;BME280;47465;43.094;12.434;2023-03-21T19:26:24;98626.50;;;10.25;92.97
61573;BME280;47465;43.094;12.434;2023-03-21T19:28:51;98633.97;;;10.75;88.00
61573;BME280;47465;43.094;12.434;2023-03-21T19:31:22;98639.88;;;11.15;85.04
61573;BME280;47465;43.094;12.434;2023-03-21T19:33:52;98676.41;;;11.64;81.54
61573;BME280;47465;43.094;12.434;2023-03-21T19:36:22;98654.34;;;11.61;81.45
61573;BME280;47465;43.094;12.434;2023-03-21T19:38:51;98644.59;;;11.60;80.72
61573;BME280;47465;43.094;12.434;2023-03-21T19:41:18;98652.97;;;11.76;79.69
61573;BME280;47465;43.094;12.434;2023-03-21T19:43:48;98637.75;;;11.52;81.22
61573;BME280;47465;43.094;12.434;2023-03-21T19:46:16;98687.78;;;11.43;84.12
61573;BME280;47465;43.094;12.434;2023-03-21T19:48:52;98678.97;;;11.13;86.01
61573;BME280;47465;43.094;12.434;2023-03-21T19:51:19;98645.72;;;10.68;86.87
61573;BME280;47465;43.094;12.434;2023-03-21T19:53:49;98689.47;;;11.17;84.56
61573;BME280;47465;43.094;12.434;2023-03-21T19:56:19;98637.75;;;11.26;81.68
61573;BME280;47465;43.094;12.434;2023-03-21T19:58:45;98649.13;;;11.58;79.61
61573;BME280;47465;43.094;12.434;2023-03-21T20:01:14;98640.97;;;11.62;79.31
61573;BME280;47465;43.094;12.434;2023-03-21T20:03:42;98631.75;;;11.72;78.75
61573;BME280;47465;43.094;12.434;2023-03-21T20:06:13;98640.69;;;11.71;78.81
61573;BME280;47465;43.094;12.434;2023-03-21T20:08:42;98630.03;;;11.71;78.30
61573;BME280;47465;43.094;12.434;2023-03-21T20:11:09;98641.09;;;11.59;79.53
61573;BME280;47465;43.094;12.434;2023-03-21T20:13:37;98642.94;;;11.29;82.15
61573;BME280;47465;43.094;12.434;2023-03-21T20:16:06;98645.75;;;11.24;81.99
61573;BME280;47465;43.094;12.434;2023-03-21T20:18:36;98647.78;;;11.44;80.74
61573;BME280;47465;43.094;12.434;2023-03-21T20:21:05;98661.25;;;11.40;82.73
61573;BME280;47465;43.094;12.434;2023-03-21T20:23:35;98651.75;;;11.31;81.45
61573;BME280;47465;43.094;12.434;2023-03-21T20:26:10;98666.69;;;11.37;82.62
61573;BME280;47465;43.094;12.434;2023-03-21T20:28:37;98644.03;;;11.23;81.70
61573;BME280;47465;43.094;12.434;2023-03-21T20:31:05;98640.44;;;11.24;81.71
61573;BME280;47465;43.094;12.434;2023-03-21T20:33:32;98642.78;;;11.34;81.52
61573;BME280;47465;43.094;12.434;2023-03-21T20:36:00;98639.88;;;11.43;80.64
61573;BME280;47465;43.094;12.434;2023-03-21T20:38:30;98652.88;;;11.52;79.85
61573;BME280;47465;43.094;12.434;2023-03-21T20:41:03;98644.72;;;11.57;79.03
61573;BME280;47465;43.094;12.434;2023-03-21T20:43:36;98679.50;;;11.79;78.80
61573;BME280;47465;43.094;12.434;2023-03-21T20:46:06;98645.59;;;11.57;79.17
61573;BME280;47465;43.094;12.434;2023-03-21T20:48:34;98690.28;;;11.76;79.21
61573;BME280;47465;43.094;12.434;2023-03-21T20:51:07;98660.53;;;11.61;79.40
61573;BME280;47465;43.094;12.434;2023-03-21T20:53:36;98666.03;;;11.57;79.62
61573;BME280;47465;43.094;12.434;2023-03-21T20:56:09;98659.09;;;11.51;79.50
61573;BME280;47465;43.094;12.434;2023-03-21T20:58:43;98647.47;;;11.54;79.21
61573;BME280;47465;43.094;12.434;2023-03-21T21:01:09;98649.69;;;11.67;78.18
61573;BME280;47465;43.094;12.434;2023-03-21T21:03:42;98646.88;;;11.72;77.56
61573;BME280;47465;43.094;12.434;2023-03-21T21:06:12;98684.03;;;12.03;77.11
61573;BME280;47465;43.094;12.434;2023-03-21T21:08:44;98648.22;;;11.84;76.40
61573;BME280;47465;43.094;12.434;2023-03-21T21:11:15;98687.41;;;12.08;75.97
61573;BME280;47465;43.094;12.434;2023-03-21T21:13:51;98636.00;;;11.78;76.32
61573;BME280;47465;43.094;12.434;2023-03-21T21:16:19;98647.25;;;11.88;75.92
61573;BME280;47465;43.094;12.434;2023-03-21T21:18:48;98644.56;;;11.88;75.78
61573;BME280;47465;43.094;12.434;2023-03-21T21:21:17;98639.34;;;11.85;75.11
61573;BME280;47465;43.094;12.434;2023-03-21T21:23:43;98653.47;;;11.88;75.18
61573;BME280;47465;43.094;12.434;2023-03-21T21:26:19;98652.16;;;11.74;76.41
61573;BME280;47465;43.094;12.434;2023-03-21T21:28:45;98658.81;;;11.60;76.16
61573;BME280;47465;43.094;12.434;2023-03-21T21:31:14;98652.59;;;11.33;80.23
61573;BME280;47465;43.094;12.434;2023-03-21T21:33:41;98672.00;;;11.08;82.61
61573;BME280;47465;43.094;12.434;2023-03-21T21:36:09;98664.16;;;10.74;84.63
61573;BME280;47465;43.094;12.434;2023-03-21T21:38:37;98666.75;;;10.44;86.37
61573;BME280;47465;43.094;12.434;2023-03-21T21:41:07;98682.38;;;10.24;89.23
61573;BME280;47465;43.094;12.434;2023-03-21T21:43:38;98663.75;;;9.91;91.78
61573;BME280;47465;43.094;12.434;2023-03-21T21:46:05;98677.53;;;9.71;93.89
61573;BME280;47465;43.094;12.434;2023-03-21T21:48:34;98671.88;;;9.49;95.84
61573;BME280;47465;43.094;12.434;2023-03-21T21:51:00;98684.81;;;9.25;98.38
61573;BME280;47465;43.094;12.434;2023-03-21T21:53:28;98679.84;;;9.12;99.89
61573;BME280;47465;43.094;12.434;2023-03-21T21:55:54;98679.31;;;8.96;100.00
61573;BME280;47465;43.094;12.434;2023-03-21T21:58:24;98718.88;;;9.07;100.00
61573;BME280;47465;43.094;12.434;2023-03-21T22:00:52;98684.16;;;8.75;100.00
61573;BME280;47465;43.094;12.434;2023-03-21T22:03:18;98726.13;;;8.97;100.00
61573;BME280;47465;43.094;12.434;2023-03-21T22:05:46;98696.53;;;8.76;100.00
61573;BME280;47465;43.094;12.434;2023-03-21T22:08:12;98698.13;;;8.85;100.00
61573;BME280;47465;43.094;12.434;2023-03-21T22:10:43;98709.78;;;8.76;100.00
61573;BME280;47465;43.094;12.434;2023-03-21T22:13:09;98679.38;;;8.51;100.00
61573;BME280;47465;43.094;12.434;2023-03-21T22:15:35;98679.31;;;8.54;100.00
61573;BME280;47465;43.094;12.434;2023-03-21T22:18:08;98725.59;;;8.81;100.00
61573;BME280;47465;43.094;12.434;2023-03-21T22:20:36;98731.75;;;8.81;100.00
61573;BME280;47465;43.094;12.434;2023-03-21T22:23:03;98693.38;;;8.57;100.00
61573;BME280;47465;43.094;12.434;2023-03-21T22:25:32;98681.81;;;8.61;100.00
61573;BME280;47465;43.094;12.434;2023-03-21T22:28:04;98701.84;;;8.75;100.00
61573;BME280;47465;43.094;12.434;2023-03-21T22:30:31;98676.56;;;8.58;100.00